Time;durP1;ratioP1;P1;durP2;ratioP2;P2;SDS_P1;SDS_P2;PMS_P1;PMS_P2;Temp;Humidity;BMP_temperature;BMP_pressure;BME280_temperature;BME280_humidity;BME280_pressure;Samples;Min_cycle;Max_cycle;Signal;HPM_P1;HPM_P2
2020/12/03 00:01:59;;;;;;;19.08;9.00;;;;;;;4.97;98.12;100244.81;5056358;28;20052;-55
2020/12/03 00:04:26;;;;;;;21.25;10.00;;;;;;;4.86;98.28;100237.03;5061051;28;20053;-54
2020/12/03 00:06:55;;;;;;;25.77;9.98;;;;;;;4.91;98.88;100244.56;5049631;28;20372;-55
2020/12/03 00:09:22;;;;;;;24.65;10.20;;;;;;;4.89;98.73;100231.50;5054175;28;20048;-56
2020/12/03 00:11:53;;;;;;;23.83;10.45;;;;;;;4.88;98.95;100232.47;5052726;28;20070;-58
2020/12/03 00:14:20;;;;;;;21.98;11.57;;;;;;;4.88;99.27;100219.22;5053800;28;20048;-57
2020/12/03 00:16:52;;;;;;;24.63;10.90;;;;;;;4.89;99.32;100226.19;5059281;28;20114;-57
2020/12/03 00:19:23;;;;;;;25.42;11.00;;;;;;;4.87;99.52;100220.19;5056308;28;20045;-57
2020/12/03 00:21:53;;;;;;;24.52;11.73;;;;;;;4.92;99.46;100207.38;5059456;28;20041;-55
2020/12/03 00:24:23;;;;;;;23.65;12.70;;;;;;;4.94;99.83;100208.06;5055491;28;20036;-55
2020/12/03 00:26:51;;;;;;;26.58;13.10;;;;;;;4.97;99.22;100196.38;5059844;28;20041;-55
2020/12/03 00:29:18;;;;;;;33.78;13.85;;;;;;;4.85;99.51;100206.28;5049839;28;20338;-53
2020/12/03 00:31:46;;;;;;;32.65;13.93;;;;;;;4.93;100.00;100202.91;5051206;28;20044;-53
2020/12/03 00:34:13;;;;;;;29.45;13.20;;;;;;;4.95;99.74;100191.22;5053826;28;20041;-55
2020/12/03 00:36:41;;;;;;;29.08;14.32;;;;;;;4.88;99.76;100171.59;5053426;28;20356;-56
2020/12/03 00:39:11;;;;;;;28.05;15.65;;;;;;;4.86;100.00;100180.66;5056650;28;20353;-55
2020/12/03 00:41:38;;;;;;;30.30;15.10;;;;;;;4.83;99.96;100185.25;5052315;28;20056;-55
2020/12/03 00:44:05;;;;;;;29.10;15.00;;;;;;;4.82;100.00;100183.59;5053418;28;20060;-56
2020/12/03 00:46:33;;;;;;;29.52;14.65;;;;;;;4.82;100.00;100180.94;5056441;28;20486;-55
2020/12/03 00:49:01;;;;;;;42.10;15.13;;;;;;;4.88;100.00;100181.38;5048791;28;20049;-54
2020/12/03 00:51:28;;;;;;;28.73;13.40;;;;;;;4.90;100.00;100169.63;5054221;28;20052;-53
2020/12/03 00:53:56;;;;;;;35.55;18.25;;;;;;;4.80;100.00;100169.66;5059017;28;20420;-56
2020/12/03 00:56:23;;;;;;;29.42;15.18;;;;;;;4.91;100.00;100173.13;5050001;28;20446;-55
2020/12/03 00:58:50;;;;;;;33.97;14.63;;;;;;;4.88;100.00;100176.91;5058733;28;20057;-54
2020/12/03 01:01:18;;;;;;;29.92;14.32;;;;;;;4.85;100.00;100177.19;5055467;28;20053;-55
2020/12/03 01:03:45;;;;;;;32.75;14.60;;;;;;;4.77;100.00;100167.28;5051637;28;20352;-55
2020/12/03 01:06:12;;;;;;;22.02;13.65;;;;;;;4.93;100.00;100152.66;5059788;28;20436;-48
2020/12/03 01:08:38;;;;;;;23.13;13.93;;;;;;;4.81;100.00;100150.16;5057613;28;20041;-47
2020/12/03 01:11:07;;;;;;;28.98;14.55;;;;;;;4.81;100.00;100136.94;5055399;28;20053;-49
2020/12/03 01:13:35;;;;;;;20.25;11.63;;;;;;;4.77;100.00;100137.38;5054539;28;20048;-49
2020/12/03 01:16:02;;;;;;;20.85;11.38;;;;;;;4.80;100.00;100132.59;5059816;28;20056;-50
2020/12/03 01:18:30;;;;;;;17.67;11.30;;;;;;;4.76;100.00;100136.53;5063805;28;20450;-49
2020/12/03 01:20:57;;;;;;;18.80;10.70;;;;;;;4.73;100.00;100133.34;5057108;28;20041;-50
2020/12/03 01:23:24;;;;;;;17.15;9.73;;;;;;;4.80;100.00;100124.66;5057659;28;20188;-50
2020/12/03 01:25:52;;;;;;;19.90;11.45;;;;;;;4.75;100.00;100120.78;5061509;28;20079;-47
2020/12/03 01:28:19;;;;;;;20.60;11.18;;;;;;;4.78;100.00;100118.69;5055363;28;20053;-47
2020/12/03 01:30:47;;;;;;;17.67;9.68;;;;;;;4.82;100.00;100125.38;5058442;28;20071;-47
2020/12/03 01:33:14;;;;;;;21.70;11.18;;;;;;;4.80;100.00;100123.84;5067113;28;20033;-47
2020/12/03 01:35:41;;;;;;;16.00;9.15;;;;;;;4.82;100.00;100116.63;5055040;28;20071;-47
2020/12/03 01:38:08;;;;;;;18.08;10.30;;;;;;;4.87;100.00;100121.47;5056196;28;20344;-48
2020/12/03 01:40:35;;;;;;;18.73;9.50;;;;;;;4.84;100.00;100114.66;5058165;28;20466;-47
2020/12/03 01:43:02;;;;;;;17.15;10.45;;;;;;;4.85;100.00;100120.78;5056627;28;20090;-46
2020/12/03 01:45:54;;;;;;;22.25;11.40;;;;;;;4.76;100.00;100114.53;5054527;28;20041;-49
2020/12/03 01:48:32;;;;;;;21.20;10.25;;;;;;;4.74;100.00;100106.72;5058725;28;20325;-50
2020/12/03 01:51:05;;;;;;;17.20;10.05;;;;;;;4.73;100.00;100102.41;5055649;28;20424;-48
2020/12/03 01:53:33;;;;;;;19.40;9.90;;;;;;;4.80;100.00;100098.22;5053833;28;20183;-50
2020/12/03 01:56:03;;;;;;;19.17;10.48;;;;;;;4.76;100.00;100091.56;5055296;28;20060;-49
2020/12/03 01:58:40;;;;;;;17.80;9.38;;;;;;;4.79;100.00;100085.13;5054700;28;20041;-47
2020/12/03 02:01:08;;;;;;;17.20;8.95;;;;;;;4.81;100.00;100086.66;5052023;28;20052;-50
2020/12/03 02:03:44;;;;;;;17.48;8.77;;;;;;;4.72;100.00;100076.97;5057219;28;20045;-51
2020/12/03 02:06:11;;;;;;;14.68;7.82;;;;;;;4.75;100.00;100071.38;5058676;28;20176;-51
2020/12/03 02:08:38;;;;;;;16.45;8.82;;;;;;;4.76;100.00;100066.91;5056417;28;20083;-53
2020/12/03 02:11:05;;;;;;;17.55;9.65;;;;;;;4.75;100.00;100050.22;5052640;28;20075;-53
2020/12/03 02:13:32;;;;;;;15.82;7.82;;;;;;;4.80;100.00;100053.25;5060211;28;20056;-50
2020/12/03 02:15:59;;;;;;;16.77;8.50;;;;;;;4.79;100.00;100046.31;5059938;28;20051;-51
2020/12/03 02:18:27;;;;;;;16.05;8.95;;;;;;;4.72;100.00;100045.22;5057558;28;20424;-50
2020/12/03 02:20:54;;;;;;;19.77;8.52;;;;;;;4.77;100.00;100037.66;5057725;28;20048;-48
2020/12/03 02:23:21;;;;;;;16.73;10.38;;;;;;;4.75;100.00;100039.63;5052736;28;20052;-48
2020/12/03 02:25:48;;;;;;;18.40;10.63;;;;;;;4.71;100.00;100030.31;5057180;28;20048;-49
2020/12/03 02:28:15;;;;;;;15.80;8.98;;;;;;;4.76;100.00;100019.28;5058475;28;20052;-49
2020/12/03 02:30:42;;;;;;;17.33;8.95;;;;;;;4.73;100.00;100009.84;5052167;28;20456;-49
2020/12/03 02:33:09;;;;;;;20.67;9.10;;;;;;;4.71;100.00;100011.81;5059435;28;20032;-48
2020/12/03 02:35:36;;;;;;;16.70;8.70;;;;;;;4.73;100.00;99993.97;5056711;28;20040;-50
2020/12/03 02:38:04;;;;;;;20.88;9.73;;;;;;;4.72;100.00;99996.75;5057034;28;20052;-49
2020/12/03 02:40:31;;;;;;;13.32;8.35;;;;;;;4.73;100.00;99993.13;5052124;28;20140;-47
2020/12/03 02:42:58;;;;;;;22.63;9.90;;;;;;;4.65;100.00;99991.22;5055448;28;20055;-49
2020/12/03 02:45:25;;;;;;;17.85;8.43;;;;;;;4.67;100.00;99980.50;5057160;28;20325;-48
2020/12/03 02:47:52;;;;;;;14.98;9.63;;;;;;;4.68;100.00;99982.16;5054863;28;20132;-48
2020/12/03 02:50:19;;;;;;;17.80;10.40;;;;;;;4.61;100.00;99973.97;5055270;28;20052;-48
2020/12/03 02:52:45;;;;;;;13.27;7.93;;;;;;;4.67;100.00;99969.94;5052366;28;20063;-48
2020/12/03 02:55:13;;;;;;;15.30;7.55;;;;;;;4.67;100.00;99967.28;5052566;28;20562;-47
2020/12/03 02:57:40;;;;;;;13.80;8.10;;;;;;;4.63;100.00;99956.97;5057514;28;20071;-48
2020/12/03 03:00:07;;;;;;;12.23;7.65;;;;;;;4.68;100.00;99953.91;5053431;28;20044;-51
2020/12/03 03:02:34;;;;;;;15.35;8.52;;;;;;;4.64;100.00;99945.41;5058359;28;20067;-52
2020/12/03 03:05:01;;;;;;;11.65;8.02;;;;;;;4.66;100.00;99942.63;5060102;28;20040;-53
2020/12/03 03:07:28;;;;;;;14.65;8.52;;;;;;;4.59;100.00;99941.53;5055990;28;20052;-52
2020/12/03 03:09:55;;;;;;;14.13;8.32;;;;;;;4.62;100.00;99933.31;5053694;28;20057;-51
2020/12/03 03:12:23;;;;;;;18.05;9.70;;;;;;;4.62;100.00;99928.03;5054828;28;20043;-48
2020/12/03 03:14:53;;;;;;;15.10;8.60;;;;;;;4.64;100.00;99926.09;5058054;28;20352;-48
2020/12/03 03:17:20;;;;;;;14.00;8.50;;;;;;;4.60;100.00;99938.75;5056189;28;20047;-51
2020/12/03 03:19:47;;;;;;;15.00;8.43;;;;;;;4.61;100.00;99929.84;5053136;28;20055;-50
2020/12/03 03:22:14;;;;;;;18.88;9.00;;;;;;;4.60;100.00;99919.41;5049199;28;20468;-49
2020/12/03 03:24:41;;;;;;;19.50;8.38;;;;;;;4.67;100.00;99915.22;5056133;28;20055;-48
2020/12/03 03:27:08;;;;;;;17.30;8.52;;;;;;;4.64;100.00;99908.38;5058163;28;20048;-48
2020/12/03 03:29:36;;;;;;;19.65;8.40;;;;;;;4.60;100.00;99909.66;5052664;28;20431;-49
2020/12/03 03:32:03;;;;;;;21.48;9.38;;;;;;;4.60;100.00;99914.94;5055304;28;20060;-48
2020/12/03 03:34:29;;;;;;;19.80;9.35;;;;;;;4.58;100.00;99902.84;5050967;28;20056;-47
2020/12/03 03:36:56;;;;;;;17.23;9.40;;;;;;;4.61;100.00;99899.94;5055208;28;20049;-48
2020/12/03 03:39:24;;;;;;;18.13;9.85;;;;;;;4.62;100.00;99896.28;5057509;28;20060;-47
2020/12/03 03:41:56;;;;;;;18.35;9.35;;;;;;;4.60;100.00;99887.69;5057874;28;20096;-47
2020/12/03 03:44:23;;;;;;;19.27;9.75;;;;;;;4.60;100.00;99875.28;5051555;28;20053;-48
2020/12/03 03:46:51;;;;;;;19.63;10.88;;;;;;;4.56;100.00;99862.50;5053885;28;20041;-48
2020/12/03 03:49:18;;;;;;;17.45;10.10;;;;;;;4.55;100.00;99845.81;5051890;28;20048;-48
2020/12/03 03:51:46;;;;;;;22.15;11.20;;;;;;;4.51;100.00;99846.25;5049553;28;20127;-51
2020/12/03 03:54:13;;;;;;;19.33;10.77;;;;;;;4.57;100.00;99840.38;5054595;28;20051;-47
2020/12/03 03:56:42;;;;;;;19.63;11.25;;;;;;;4.52;100.00;99839.97;5053072;28;20044;-48
2020/12/03 03:59:08;;;;;;;20.50;11.52;;;;;;;4.51;100.00;99835.66;5056448;28;20056;-48
2020/12/03 04:01:35;;;;;;;24.75;12.85;;;;;;;4.52;100.00;99842.63;5059244;28;20292;-48
2020/12/03 04:04:03;;;;;;;21.67;11.68;;;;;;;4.55;100.00;99831.75;5052017;28;20320;-51
2020/12/03 04:06:30;;;;;;;20.20;11.90;;;;;;;4.58;100.00;99836.75;5053007;28;20040;-49
2020/12/03 04:08:58;;;;;;;20.52;10.85;;;;;;;4.56;100.00;99841.34;5058769;28;20504;-49
2020/12/03 04:11:25;;;;;;;23.42;11.52;;;;;;;4.52;100.00;99826.75;5055783;28;20503;-49
2020/12/03 04:13:51;;;;;;;21.83;12.38;;;;;;;4.56;100.00;99817.56;5052683;28;20451;-50
2020/12/03 04:16:18;;;;;;;21.88;10.93;;;;;;;4.58;100.00;99816.44;5055524;28;20322;-52
2020/12/03 04:18:45;;;;;;;21.15;12.55;;;;;;;4.48;100.00;99819.13;5054201;28;20052;-52
2020/12/03 04:21:16;;;;;;;21.00;13.07;;;;;;;4.50;100.00;99815.53;5055729;28;20359;-49
2020/12/03 04:23:43;;;;;;;20.70;11.45;;;;;;;4.48;100.00;99803.28;5053294;28;20451;-49
2020/12/03 04:26:11;;;;;;;18.05;10.52;;;;;;;4.55;100.00;99802.66;5058382;28;20773;-52
2020/12/03 04:28:38;;;;;;;20.38;11.18;;;;;;;4.53;100.00;99802.00;5054109;28;20072;-51
2020/12/03 04:31:05;;;;;;;31.05;12.55;;;;;;;4.55;100.00;99792.09;5050489;28;20068;-49
2020/12/03 04:33:33;;;;;;;18.08;11.57;;;;;;;4.55;100.00;99797.38;5062018;28;20488;-48
2020/12/03 04:36:01;;;;;;;20.30;12.30;;;;;;;4.47;100.00;99791.03;5059126;28;20044;-50
2020/12/03 04:38:28;;;;;;;22.70;12.45;;;;;;;4.45;100.00;99795.63;5059603;28;20057;-49
2020/12/03 04:40:56;;;;;;;21.45;11.93;;;;;;;4.55;100.00;99779.72;5058443;28;20222;-49
2020/12/03 04:43:29;;;;;;;19.88;11.45;;;;;;;4.50;100.00;99778.50;5055126;28;20068;-49
2020/12/03 04:46:00;;;;;;;20.35;11.88;;;;;;;4.48;100.00;99776.00;5055977;28;20052;-48
2020/12/03 04:48:51;;;;;;;21.02;11.18;;;;;;;4.46;100.00;99773.50;5058029;28;20053;-48
2020/12/03 04:51:33;;;;;;;17.60;11.45;;;;;;;4.48;100.00;99755.69;5036891;28;20041;-47
2020/12/03 04:54:09;;;;;;;21.70;11.18;;;;;;;4.48;100.00;99755.69;5065713;28;20067;-48
2020/12/03 04:56:46;;;;;;;19.85;10.43;;;;;;;4.50;100.00;99744.94;5055386;28;20143;-47
2020/12/03 04:59:21;;;;;;;17.05;9.38;;;;;;;4.50;100.00;99738.84;5059749;28;20431;-46
2020/12/03 05:02:01;;;;;;;19.40;10.35;;;;;;;4.50;100.00;99728.25;5058329;28;20447;-46
2020/12/03 05:04:34;;;;;;;20.38;10.73;;;;;;;4.48;100.00;99729.25;5054738;28;20057;-47
2020/12/03 05:07:03;;;;;;;19.05;10.77;;;;;;;4.52;100.00;99735.03;5054113;28;20060;-46
2020/12/03 05:09:36;;;;;;;16.27;9.32;;;;;;;4.55;100.00;99726.84;5055541;28;20144;-47
2020/12/03 05:12:07;;;;;;;14.90;9.10;;;;;;;4.47;100.00;99722.28;5052868;28;20048;-47
2020/12/03 05:14:39;;;;;;;20.17;9.80;;;;;;;4.52;100.00;99716.53;5057689;28;20063;-47
2020/12/03 05:17:29;;;;;;;13.70;9.40;;;;;;;4.51;100.00;99699.03;5053127;28;20072;-47
2020/12/03 05:20:24;;;;;;;15.68;9.63;;;;;;;4.50;100.00;99699.19;5057170;28;20056;-47
2020/12/03 05:22:56;;;;;;;14.10;9.15;;;;;;;4.47;100.00;99697.66;5057817;28;20059;-51
2020/12/03 05:25:25;;;;;;;18.00;10.25;;;;;;;4.49;100.00;99679.81;5055525;28;20053;-48
2020/12/03 05:27:54;;;;;;;16.50;10.35;;;;;;;4.46;100.00;99675.66;5057010;28;20063;-47
2020/12/03 05:30:22;;;;;;;17.17;10.35;;;;;;;4.48;100.00;99673.72;5060005;28;20052;-47
2020/12/03 05:32:49;;;;;;;16.65;9.25;;;;;;;4.50;100.00;99659.53;5062442;28;20325;-50
2020/12/03 05:35:18;;;;;;;19.88;11.10;;;;;;;4.50;100.00;99659.53;5057292;28;20056;-47
2020/12/03 05:37:45;;;;;;;19.52;11.32;;;;;;;4.60;100.00;99645.22;5054602;28;20062;-47
2020/12/03 05:40:20;;;;;;;18.67;10.32;;;;;;;4.57;100.00;99639.41;5054418;28;20041;-46
2020/12/03 05:42:49;;;;;;;21.00;10.25;;;;;;;4.45;100.00;99644.94;5054228;28;20055;-48
2020/12/03 05:45:20;;;;;;;22.50;12.02;;;;;;;4.50;100.00;99641.00;5056555;28;20381;-47
2020/12/03 05:47:50;;;;;;;22.02;12.15;;;;;;;4.43;100.00;99638.97;5062149;28;20064;-49
2020/12/03 05:50:35;;;;;;;23.42;13.35;;;;;;;4.45;100.00;99642.31;5055577;28;20053;-48
2020/12/03 05:53:05;;;;;;;20.77;12.98;;;;;;;4.44;100.00;99640.63;5053016;28;20055;-49
2020/12/03 05:55:33;;;;;;;27.02;13.07;;;;;;;4.51;100.00;99634.72;5052490;28;20322;-47
2020/12/03 05:58:18;;;;;;;25.13;14.38;;;;;;;4.39;100.00;99624.38;5055056;28;20059;-47
2020/12/03 06:00:46;;;;;;;23.80;14.00;;;;;;;4.43;100.00;99624.91;5054424;28;20142;-47
2020/12/03 06:03:27;;;;;;;27.15;14.48;;;;;;;4.50;100.00;99617.22;5057814;28;20046;-47
2020/12/03 06:06:07;;;;;;;24.05;14.40;;;;;;;4.48;100.00;99610.25;5058062;28;20083;-47
2020/12/03 06:08:46;;;;;;;29.33;15.93;;;;;;;4.46;100.00;99600.81;5060564;28;20056;-47
2020/12/03 06:11:35;;;;;;;24.83;14.75;;;;;;;4.47;100.00;99598.00;5055079;28;20063;-47
2020/12/03 06:14:17;;;;;;;30.27;15.23;;;;;;;4.49;100.00;99587.28;5059098;28;20060;-48
2020/12/03 06:16:46;;;;;;;27.80;15.38;;;;;;;4.45;100.00;99580.66;5054435;28;20448;-48
2020/12/03 06:19:21;;;;;;;25.42;14.57;;;;;;;4.52;100.00;99575.56;5056031;28;20052;-48
2020/12/03 06:22:05;;;;;;;29.00;15.18;;;;;;;4.47;100.00;99568.13;5051350;28;20056;-48
2020/12/03 06:25:00;;;;;;;33.28;16.92;;;;;;;4.52;100.00;99570.28;5055252;28;20708;-48
2020/12/03 06:27:47;;;;;;;31.33;16.33;;;;;;;4.49;100.00;99574.06;5038910;28;20057;-48
2020/12/03 06:30:21;;;;;;;30.77;15.48;;;;;;;4.46;100.00;99575.19;5055584;28;20051;-51
2020/12/03 06:33:05;;;;;;;30.50;17.43;;;;;;;4.56;100.00;99572.47;5062638;28;20080;-49
2020/12/03 06:35:37;;;;;;;36.83;15.65;;;;;;;4.59;100.00;99552.81;5053309;28;20053;-49
2020/12/03 06:38:17;;;;;;;25.13;14.80;;;;;;;4.53;100.00;99540.22;5052838;28;20068;-51
2020/12/03 06:40:49;;;;;;;30.63;15.65;;;;;;;4.55;100.00;99536.44;5053473;28;20053;-48
2020/12/03 06:43:19;;;;;;;27.33;15.60;;;;;;;4.56;100.00;99526.69;5058452;28;20057;-51
2020/12/03 06:46:04;;;;;;;30.60;15.75;;;;;;;4.58;100.00;99527.34;5051191;28;20072;-48
2020/12/03 06:48:48;;;;;;;28.10;14.43;;;;;;;4.59;100.00;99531.66;5061314;28;20116;-48
2020/12/03 06:51:34;;;;;;;30.48;16.77;;;;;;;4.51;100.00;99539.53;5057144;28;20044;-49
2020/12/03 06:54:20;;;;;;;31.38;16.90;;;;;;;4.61;100.00;99537.66;5055974;28;20432;-50
2020/12/03 06:57:15;;;;;;;29.42;15.25;;;;;;;4.61;100.00;99537.66;5054794;28;20044;-49
2020/12/03 07:00:09;;;;;;;40.58;18.73;;;;;;;4.56;100.00;99534.63;5056742;28;20055;-49
2020/12/03 07:03:03;;;;;;;35.75;16.88;;;;;;;4.57;100.00;99539.75;5053089;28;20054;-50
2020/12/03 07:06:09;;;;;;;32.78;16.55;;;;;;;4.60;100.00;99535.97;5051769;28;20055;-49
2020/12/03 07:08:51;;;;;;;35.45;16.45;;;;;;;4.62;100.00;99532.19;5052422;28;20469;-48
2020/12/03 07:12:03;;;;;;;30.02;15.95;;;;;;;4.67;100.00;99518.50;5052333;28;20037;-50
2020/12/03 07:15:30;;;;;;;33.92;15.77;;;;;;;4.58;100.00;99504.41;5029189;28;20037;-47
2020/12/03 07:18:20;;;;;;;36.50;17.00;;;;;;;4.60;100.00;99507.72;5052522;28;20356;-48
2020/12/03 07:20:56;;;;;;;37.58;16.60;;;;;;;4.68;100.00;99508.75;5055284;28;20048;-51
2020/12/03 07:23:34;;;;;;;38.47;18.05;;;;;;;4.68;100.00;99493.72;5053870;28;20056;-49
2020/12/03 07:26:03;;;;;;;42.35;19.02;;;;;;;4.65;100.00;99496.69;5054822;28;20271;-48
2020/12/03 07:28:35;;;;;;;39.88;17.85;;;;;;;4.72;100.00;99502.16;5052050;28;20273;-47
2020/12/03 07:31:03;;;;;;;36.65;18.63;;;;;;;4.70;100.00;99496.19;5052530;28;20037;-51
2020/12/03 07:33:45;;;;;;;44.00;20.25;;;;;;;4.68;100.00;99504.31;5055441;28;20040;-48
2020/12/03 07:36:28;;;;;;;45.15;22.33;;;;;;;4.68;100.00;99504.31;5052339;28;20044;-50
2020/12/03 07:38:59;;;;;;;43.53;21.13;;;;;;;4.65;100.00;99494.03;5050541;28;20051;-50
2020/12/03 07:41:29;;;;;;;42.63;20.40;;;;;;;4.75;100.00;99489.44;5051538;28;20452;-49
2020/12/03 07:44:07;;;;;;;49.15;22.85;;;;;;;4.72;100.00;99484.50;5057695;28;20056;-48
2020/12/03 07:46:38;;;;;;;42.13;21.15;;;;;;;4.74;100.00;99487.78;5049599;28;20036;-50
2020/12/03 07:49:09;;;;;;;39.85;19.70;;;;;;;4.74;100.00;99482.50;5050733;28;20053;-50
2020/12/03 07:51:36;;;;;;;42.00;21.33;;;;;;;4.70;100.00;99478.50;5049466;28;20326;-49
2020/12/03 07:54:23;;;;;;;46.25;23.42;;;;;;;4.65;100.00;99484.28;5055960;28;20084;-52
2020/12/03 07:56:52;;;;;;;44.42;22.27;;;;;;;4.69;100.00;99482.13;5054855;28;20051;-51
2020/12/03 07:59:36;;;;;;;42.80;19.85;;;;;;;4.73;100.00;99472.91;5054429;28;20321;-50
2020/12/03 08:02:19;;;;;;;45.28;20.73;;;;;;;4.72;100.00;99463.34;5057576;28;20056;-48
2020/12/03 08:04:47;;;;;;;43.25;20.65;;;;;;;4.70;100.00;99461.81;5052086;28;20061;-52
2020/12/03 08:07:29;;;;;;;38.53;20.10;;;;;;;4.70;100.00;99465.28;5055884;28;20044;-48
2020/12/03 08:09:56;;;;;;;41.63;20.60;;;;;;;4.74;100.00;99468.47;5052300;28;20055;-49
2020/12/03 08:12:26;;;;;;;42.00;20.90;;;;;;;4.76;100.00;99464.66;5054378;28;20499;-49
2020/12/03 08:14:54;;;;;;;54.70;21.48;;;;;;;4.74;100.00;99453.41;5055559;28;20044;-52
2020/12/03 08:17:44;;;;;;;35.97;19.30;;;;;;;4.74;100.00;99453.41;5053676;28;20151;-50
2020/12/03 08:20:18;;;;;;;38.22;18.08;;;;;;;4.74;100.00;99434.88;5052122;28;20045;-49
2020/12/03 08:22:47;;;;;;;38.03;18.40;;;;;;;4.74;100.00;99439.38;5050373;28;20396;-50
2020/12/03 08:25:16;;;;;;;39.10;18.58;;;;;;;4.83;100.00;99444.53;5055165;28;20068;-48
2020/12/03 08:27:50;;;;;;;33.03;17.10;;;;;;;4.76;100.00;99427.66;5056782;28;20045;-48
2020/12/03 08:30:39;;;;;;;34.90;18.13;;;;;;;4.77;100.00;99424.00;5055650;28;20106;-48
2020/12/03 08:33:12;;;;;;;35.35;17.35;;;;;;;4.85;100.00;99412.63;5056469;28;20048;-48
2020/12/03 08:35:40;;;;;;;35.78;18.40;;;;;;;4.87;100.00;99407.19;5049867;28;20508;-48
2020/12/03 08:38:08;;;;;;;38.60;17.55;;;;;;;4.81;100.00;99401.53;5052914;28;20053;-47
2020/12/03 08:40:36;;;;;;;39.35;19.60;;;;;;;4.84;100.00;99392.44;5055623;28;20213;-49
2020/12/03 08:43:08;;;;;;;44.28;19.98;;;;;;;4.79;100.00;99369.13;5055083;28;20055;-48
2020/12/03 08:45:43;;;;;;;48.70;21.77;;;;;;;4.81;100.00;99377.72;5051465;28;20421;-47
2020/12/03 08:48:13;;;;;;;42.63;20.55;;;;;;;4.80;100.00;99365.47;5057889;28;21130;-48
2020/12/03 08:50:40;;;;;;;36.10;18.65;;;;;;;4.82;100.00;99363.50;5050860;28;20045;-47
2020/12/03 08:53:11;;;;;;;35.80;19.25;;;;;;;4.92;100.00;99359.88;5052309;28;20041;-48
2020/12/03 08:55:39;;;;;;;34.33;17.77;;;;;;;4.86;100.00;99353.41;5059039;28;20317;-49
2020/12/03 08:58:07;;;;;;;45.60;20.35;;;;;;;4.76;100.00;99353.59;5054012;28;20045;-47
2020/12/03 09:00:40;;;;;;;48.58;19.77;;;;;;;4.75;100.00;99354.56;5054533;28;20051;-48
2020/12/03 09:03:13;;;;;;;39.45;18.08;;;;;;;4.78;100.00;99346.31;5057228;28;20417;-48
2020/12/03 09:05:43;;;;;;;39.80;17.77;;;;;;;4.86;100.00;99340.19;5051613;28;20616;-47
2020/12/03 09:08:12;;;;;;;44.97;19.55;;;;;;;4.79;100.00;99337.38;5049750;28;20043;-47
2020/12/03 09:10:39;;;;;;;34.13;17.02;;;;;;;4.80;100.00;99331.09;5052357;28;20153;-48
2020/12/03 09:13:08;;;;;;;38.83;20.60;;;;;;;4.82;100.00;99325.66;5050775;28;20049;-47
2020/12/03 09:15:36;;;;;;;39.08;18.98;;;;;;;4.83;100.00;99324.66;5052809;28;20659;-47
2020/12/03 09:18:05;;;;;;;46.00;20.15;;;;;;;4.83;100.00;99325.50;5054624;28;20049;-48
2020/12/03 09:20:33;;;;;;;38.40;17.90;;;;;;;4.81;100.00;99324.81;5048670;28;20041;-47
2020/12/03 09:23:00;;;;;;;38.72;18.08;;;;;;;4.85;100.00;99314.75;5047683;28;20048;-47
2020/12/03 09:25:27;;;;;;;44.38;17.13;;;;;;;4.86;100.00;99307.63;5049872;28;20053;-48
2020/12/03 09:27:55;;;;;;;40.75;19.05;;;;;;;4.83;100.00;99301.69;5048291;28;20057;-47
2020/12/03 09:30:23;;;;;;;40.13;17.63;;;;;;;4.85;100.00;99311.25;5054066;28;20052;-48
2020/12/03 09:32:58;;;;;;;38.65;17.92;;;;;;;4.89;100.00;99299.38;5055187;28;20477;-47
2020/12/03 09:35:26;;;;;;;39.53;20.10;;;;;;;4.85;100.00;99303.31;5052243;28;20063;-47
2020/12/03 09:37:57;;;;;;;41.25;17.27;;;;;;;4.85;100.00;99300.69;5051543;28;20045;-48
2020/12/03 09:40:24;;;;;;;34.53;17.55;;;;;;;4.88;100.00;99297.72;5052391;28;20053;-48
2020/12/03 09:42:52;;;;;;;38.55;16.92;;;;;;;4.95;100.00;99282.84;5053052;28;20040;-50
2020/12/03 09:45:22;;;;;;;35.42;16.48;;;;;;;4.85;100.00;99285.66;5055242;28;20044;-49
2020/12/03 09:47:50;;;;;;;41.88;17.70;;;;;;;4.85;100.00;99282.16;5056542;28;20032;-50
2020/12/03 09:50:21;;;;;;;37.40;16.58;;;;;;;4.88;100.00;99281.84;5056440;28;20040;-48
2020/12/03 09:52:50;;;;;;;39.80;17.65;;;;;;;4.87;100.00;99274.91;5053126;28;20048;-50
2020/12/03 09:55:18;;;;;;;39.33;18.17;;;;;;;4.88;100.00;99276.56;5056259;28;20056;-47
2020/12/03 09:57:52;;;;;;;41.35;17.55;;;;;;;4.86;100.00;99265.31;5057861;28;20057;-50
2020/12/03 10:00:21;;;;;;;32.17;16.08;;;;;;;4.90;100.00;99272.75;5059005;28;20043;-50
2020/12/03 10:03:24;;;;;;;43.40;18.65;;;;;;;4.89;100.00;99259.69;5059513;28;20214;-50
2020/12/03 10:06:03;;;;;;;38.47;17.65;;;;;;;4.96;100.00;99255.38;5051895;28;20459;-51
2020/12/03 10:08:38;;;;;;;49.97;20.05;;;;;;;4.90;100.00;99248.94;5055698;28;20041;-51
2020/12/03 10:11:19;;;;;;;37.92;16.70;;;;;;;4.96;100.00;99231.56;5054112;28;20052;-50
2020/12/03 10:14:07;;;;;;;42.08;17.13;;;;;;;4.91;100.00;99239.19;5054406;28;20052;-50
2020/12/03 10:16:36;;;;;;;34.08;16.90;;;;;;;5.03;100.00;99229.09;5058446;28;20057;-51
2020/12/03 10:19:05;;;;;;;36.17;18.15;;;;;;;4.96;100.00;99228.94;5053215;28;20040;-51
2020/12/03 10:21:36;;;;;;;33.40;16.48;;;;;;;4.97;100.00;99223.47;5053390;28;20060;-49
2020/12/03 10:24:06;;;;;;;40.30;17.65;;;;;;;4.99;100.00;99218.84;5067858;28;20345;-52
2020/12/03 10:26:43;;;;;;;31.95;16.65;;;;;;;5.00;100.00;99201.16;5052125;28;20535;-53
2020/12/03 10:29:25;;;;;;;43.75;17.02;;;;;;;5.01;100.00;99200.16;5060619;28;20045;-51
2020/12/03 10:31:52;;;;;;;36.30;16.88;;;;;;;5.03;100.00;99197.34;5050645;28;20128;-49
2020/12/03 10:34:19;;;;;;;37.72;17.83;;;;;;;5.12;100.00;99194.53;5056689;28;20044;-49
2020/12/03 10:36:51;;;;;;;30.95;14.15;;;;;;;5.23;100.00;99182.78;5054520;28;20053;-46
2020/12/03 10:39:19;;;;;;;27.95;15.85;;;;;;;5.30;100.00;99182.91;5051294;28;20043;-51
2020/12/03 10:41:51;;;;;;;34.28;15.85;;;;;;;5.21;100.00;99170.72;5055264;28;20044;-50
2020/12/03 10:44:20;;;;;;;25.58;14.07;;;;;;;5.28;100.00;99158.44;5060732;28;20053;-53
2020/12/03 10:46:51;;;;;;;32.80;15.90;;;;;;;5.29;100.00;99160.94;5053253;28;20053;-49
2020/12/03 10:49:20;;;;;;;30.70;15.27;;;;;;;5.38;100.00;99145.03;5059270;28;20372;-51
2020/12/03 10:51:47;;;;;;;35.92;14.43;;;;;;;5.44;100.00;99139.84;5053364;28;20337;-49
2020/12/03 10:54:18;;;;;;;34.65;15.18;;;;;;;5.32;100.00;99135.94;5057622;28;20048;-48
2020/12/03 10:56:50;;;;;;;28.45;15.68;;;;;;;5.47;100.00;99125.44;5055225;28;20061;-47
2020/12/03 10:59:32;;;;;;;27.95;14.30;;;;;;;5.37;100.00;99116.91;5060621;28;20458;-52
2020/12/03 11:02:00;;;;;;;25.85;13.73;;;;;;;5.32;100.00;99112.13;5058356;28;20353;-54
2020/12/03 11:04:27;;;;;;;29.65;13.80;;;;;;;5.32;100.00;99109.47;5051980;28;20056;-52
2020/12/03 11:06:57;;;;;;;27.25;13.38;;;;;;;5.28;100.00;99097.56;5050911;28;20137;-54
2020/12/03 11:09:27;;;;;;;28.98;13.85;;;;;;;5.35;100.00;99093.25;5058865;28;20151;-54
2020/12/03 11:11:56;;;;;;;22.33;12.40;;;;;;;5.41;100.00;99083.78;5052614;28;20035;-54
2020/12/03 11:14:23;;;;;;;25.23;12.88;;;;;;;5.45;100.00;99077.97;5058736;28;20056;-48
2020/12/03 11:16:55;;;;;;;29.50;13.60;;;;;;;5.32;100.00;99067.13;5054853;28;20053;-49
2020/12/03 11:19:43;;;;;;;22.40;11.90;;;;;;;5.50;100.00;99057.09;5056535;28;20048;-54
2020/12/03 11:22:23;;;;;;;26.38;12.77;;;;;;;5.50;100.00;99049.16;5052742;28;20051;-54
2020/12/03 11:24:52;;;;;;;25.23;12.52;;;;;;;5.45;100.00;99050.69;5054505;28;20835;-51
2020/12/03 11:27:20;;;;;;;26.13;14.10;;;;;;;5.32;100.00;99052.06;5063023;28;20044;-52
2020/12/03 11:29:47;;;;;;;19.50;11.23;;;;;;;5.27;99.43;99033.22;5059331;28;20033;-53
2020/12/03 11:32:21;;;;;;;23.60;12.43;;;;;;;5.18;99.17;99042.19;5053677;28;20067;-50
2020/12/03 11:34:48;;;;;;;21.55;11.48;;;;;;;5.10;99.92;99035.13;5055792;28;20056;-51
2020/12/03 11:37:21;;;;;;;25.50;11.73;;;;;;;5.10;99.66;99027.19;5058617;28;20395;-51
2020/12/03 11:39:50;;;;;;;20.45;9.98;;;;;;;5.19;99.23;99017.38;5054264;28;20422;-54